createdAt,value
2023-01-13T00:01:57.960Z,0.80
2023-01-13T00:04:24.323Z,0.90
2023-01-13T00:06:50.913Z,0.98
2023-01-13T00:09:17.272Z,0.95
2023-01-13T00:11:43.675Z,1.05
2023-01-13T00:14:10.029Z,0.93
2023-01-13T00:16:36.427Z,0.93
2023-01-13T00:19:02.891Z,0.80
2023-01-13T00:21:29.240Z,0.73
2023-01-13T00:23:55.658Z,0.90
2023-01-13T00:26:27.425Z,0.93
2023-01-13T00:28:58.133Z,0.80
2023-01-13T00:31:24.595Z,0.80
2023-01-13T00:33:51.118Z,0.80
2023-01-13T00:36:19.915Z,0.85
2023-01-13T00:38:47.867Z,0.95
2023-01-13T00:41:17.201Z,0.93
2023-01-13T00:43:43.918Z,0.85
2023-01-13T00:46:13.440Z,1.08
2023-01-13T00:48:40.082Z,1.08
2023-01-13T00:51:08.041Z,1.10
2023-01-13T00:53:37.335Z,0.90
2023-01-13T00:56:07.153Z,1.25
2023-01-13T00:58:34.603Z,1.58
2023-01-13T01:01:02.710Z,1.70
2023-01-13T01:03:29.687Z,1.70
2023-01-13T01:05:57.370Z,1.83
2023-01-13T01:08:23.744Z,1.30
2023-01-13T01:10:50.084Z,1.58
2023-01-13T01:13:17.398Z,1.80
2023-01-13T01:15:44.280Z,1.60
2023-01-13T01:18:10.669Z,1.98
2023-01-13T01:20:37.645Z,1.33
2023-01-13T01:23:04.190Z,1.83
2023-01-13T01:25:32.523Z,1.88
2023-01-13T01:27:59.248Z,1.63
2023-01-13T01:30:25.583Z,2.13
2023-01-13T01:32:51.939Z,2.13
2023-01-13T01:35:18.349Z,2.25
2023-01-13T01:37:45.118Z,1.80
2023-01-13T01:40:11.932Z,1.95
2023-01-13T01:42:56.741Z,2.33
2023-01-13T01:45:26.556Z,2.55
2023-01-13T01:48:04.353Z,1.95
2023-01-13T01:50:31.401Z,2.40
2023-01-13T01:53:05.741Z,2.40
2023-01-13T01:55:36.781Z,2.25
2023-01-13T01:58:23.267Z,2.20
2023-01-13T02:00:49.633Z,2.00
2023-01-13T02:03:17.782Z,2.95
2023-01-13T02:05:44.323Z,3.00
2023-01-13T02:08:13.133Z,2.45
2023-01-13T02:10:41.383Z,2.70
2023-01-13T02:13:12.019Z,2.70
2023-01-13T02:15:49.997Z,2.58
2023-01-13T02:18:34.775Z,2.22
2023-01-13T02:21:19.401Z,2.70
2023-01-13T02:24:10.573Z,2.45
2023-01-13T02:27:10.282Z,2.53
2023-01-13T02:30:17.658Z,2.95
2023-01-13T02:35:35.107Z,2.38
2023-01-13T02:38:02.870Z,2.53
2023-01-13T02:40:37.074Z,3.95
2023-01-13T02:43:29.531Z,2.90
2023-01-13T02:46:02.930Z,2.90
2023-01-13T02:48:31.616Z,2.92
2023-01-13T02:51:07.266Z,3.17
2023-01-13T02:53:41.077Z,3.28
2023-01-13T02:56:10.085Z,3.05
2023-01-13T02:58:39.627Z,2.58
2023-01-13T03:01:06.520Z,3.13
2023-01-13T03:03:32.963Z,2.80
2023-01-13T03:06:38.251Z,2.83
2023-01-13T03:09:16.537Z,2.72
2023-01-13T03:11:55.856Z,3.10
2023-01-13T03:14:32.536Z,2.80
2023-01-13T03:17:22.047Z,3.30
2023-01-13T03:20:07.405Z,2.88
2023-01-13T03:22:43.373Z,3.38
2023-01-13T03:25:18.071Z,3.33
2023-01-13T03:27:58.373Z,2.95
2023-01-13T03:30:37.629Z,3.00
2023-01-13T03:33:17.748Z,3.65
2023-01-13T03:35:47.665Z,3.58
2023-01-13T03:38:37.690Z,3.72
2023-01-13T03:41:12.089Z,3.85
2023-01-13T03:44:10.943Z,3.70
2023-01-13T03:46:49.262Z,3.22
2023-01-13T03:49:20.425Z,4.00
2023-01-13T03:51:53.627Z,3.47
2023-01-13T03:54:23.281Z,3.75
2023-01-13T03:56:56.308Z,2.50
2023-01-13T03:59:28.344Z,3.30
2023-01-13T04:02:03.342Z,3.60
2023-01-13T04:04:35.654Z,3.27
2023-01-13T04:07:15.926Z,3.58
2023-01-13T04:09:55.913Z,3.83
2023-01-13T04:12:48.246Z,3.58
2023-01-13T04:15:17.016Z,2.97
2023-01-13T04:17:43.464Z,3.20
2023-01-13T04:20:10.460Z,2.88
2023-01-13T04:22:36.959Z,3.75
2023-01-13T04:25:03.382Z,3.50
2023-01-13T04:27:29.724Z,3.95
2023-01-13T04:29:56.115Z,3.28
2023-01-13T04:32:22.549Z,3.70
2023-01-13T04:34:48.981Z,3.78
2023-01-13T04:37:15.325Z,3.30
2023-01-13T04:39:41.752Z,3.83
2023-01-13T04:42:08.508Z,3.38
2023-01-13T04:44:37.488Z,3.33
2023-01-13T04:47:04.754Z,3.67
2023-01-13T04:49:31.479Z,3.70
2023-01-13T04:51:57.923Z,3.38
2023-01-13T04:54:24.276Z,3.70
2023-01-13T04:56:50.654Z,3.63
2023-01-13T04:59:17.043Z,3.65
2023-01-13T05:01:43.550Z,3.70
2023-01-13T05:04:10.320Z,3.33
2023-01-13T05:06:36.683Z,4.00
2023-01-13T05:09:03.220Z,3.72
2023-01-13T05:11:48.244Z,4.25
2023-01-13T05:14:33.072Z,3.40
2023-01-13T05:17:03.291Z,3.35
2023-01-13T05:19:41.836Z,3.67
2023-01-13T05:22:27.020Z,3.97
2023-01-13T05:25:11.827Z,4.40
2023-01-13T05:27:38.290Z,4.40
2023-01-13T05:30:06.104Z,4.15
2023-01-13T05:32:32.516Z,4.07
2023-01-13T05:34:59.235Z,3.35
2023-01-13T05:37:26.842Z,3.47
2023-01-13T05:40:12.099Z,3.17
2023-01-13T05:42:57.361Z,3.15
2023-01-13T05:45:24.338Z,3.33
2023-01-13T05:47:50.774Z,3.63
2023-01-13T05:50:17.833Z,3.17
2023-01-13T05:52:44.235Z,2.92
2023-01-13T05:55:12.000Z,3.08
2023-01-13T05:57:38.352Z,2.97
2023-01-13T06:00:05.748Z,3.35
2023-01-13T06:02:32.378Z,3.03
2023-01-13T06:04:59.124Z,2.80
2023-01-13T06:07:25.509Z,2.50
2023-01-13T06:09:51.842Z,2.50
2023-01-13T06:12:18.272Z,2.70
2023-01-13T06:14:44.714Z,2.58
2023-01-13T06:17:13.199Z,2.80
2023-01-13T06:19:40.443Z,2.88
2023-01-13T06:22:43.437Z,2.45
2023-01-13T06:25:31.773Z,2.90
2023-01-13T06:27:59.962Z,2.53
2023-01-13T06:30:29.683Z,2.30
2023-01-13T06:33:01.318Z,2.63
2023-01-13T06:35:32.980Z,2.33
2023-01-13T06:38:03.625Z,1.90
2023-01-13T06:40:30.251Z,2.25
2023-01-13T06:43:27.553Z,1.92
2023-01-13T06:45:55.803Z,2.17
2023-01-13T06:48:25.718Z,2.35
2023-01-13T06:50:52.064Z,2.25
2023-01-13T06:53:19.348Z,2.55
2023-01-13T06:55:45.718Z,2.40
2023-01-13T06:58:12.383Z,2.08
2023-01-13T07:00:39.336Z,2.08
2023-01-13T07:03:13.642Z,2.58
2023-01-13T07:05:41.586Z,2.40
2023-01-13T07:08:08.877Z,2.33
2023-01-13T07:10:36.515Z,2.30
2023-01-13T07:13:22.935Z,1.95
2023-01-13T07:16:01.124Z,1.95
2023-01-13T07:18:31.360Z,2.90
2023-01-13T07:21:00.271Z,2.58
2023-01-13T07:23:35.382Z,2.45
2023-01-13T07:26:02.116Z,2.20
2023-01-13T07:28:29.777Z,3.17
2023-01-13T07:30:56.599Z,2.35
2023-01-13T07:33:23.475Z,2.75
2023-01-13T07:35:57.694Z,2.35
2023-01-13T07:38:24.627Z,2.90
2023-01-13T07:40:51.103Z,2.78
2023-01-13T07:43:32.468Z,3.00
2023-01-13T07:46:00.705Z,2.53
2023-01-13T07:48:28.296Z,2.58
2023-01-13T07:50:55.743Z,2.58
2023-01-13T07:53:25.080Z,2.08
2023-01-13T07:55:55.685Z,2.85
2023-01-13T07:58:22.109Z,2.40
2023-01-13T08:00:48.481Z,2.10
2023-01-13T08:03:14.837Z,2.85
2023-01-13T08:05:41.304Z,2.67
2023-01-13T08:08:07.675Z,2.88
2023-01-13T08:10:34.381Z,2.20
2023-01-13T08:13:20.113Z,2.47
2023-01-13T08:15:58.884Z,2.63
2023-01-13T08:18:25.262Z,2.35
2023-01-13T08:20:53.065Z,2.78
2023-01-13T08:25:47.726Z,3.15
2023-01-13T08:28:16.044Z,2.75
2023-01-13T08:30:43.202Z,2.67
2023-01-13T08:33:11.571Z,2.80
2023-01-13T08:35:40.364Z,2.85
2023-01-13T08:38:07.981Z,2.42
2023-01-13T08:40:34.505Z,2.60
2023-01-13T08:43:01.253Z,2.70
2023-01-13T08:45:27.770Z,2.72
2023-01-13T08:47:54.210Z,2.75
2023-01-13T08:50:20.863Z,2.45
2023-01-13T08:52:47.212Z,2.42
2023-01-13T08:55:13.573Z,2.60
2023-01-13T08:57:40.050Z,2.63
2023-01-13T09:00:07.950Z,2.72
2023-01-13T09:02:34.329Z,2.90
2023-01-13T09:05:03.585Z,2.78
2023-01-13T09:07:31.241Z,2.83
2023-01-13T09:09:57.767Z,2.83
2023-01-13T09:12:42.842Z,2.40
2023-01-13T09:15:10.393Z,2.60
2023-01-13T09:17:36.778Z,3.35
2023-01-13T09:20:03.569Z,2.33
2023-01-13T09:22:29.899Z,2.95
2023-01-13T09:24:56.348Z,2.75
2023-01-13T09:27:23.013Z,3.03
2023-01-13T09:29:49.507Z,3.15
2023-01-13T09:32:16.449Z,2.92
2023-01-13T09:35:00.852Z,3.58
2023-01-13T09:37:29.546Z,2.75
2023-01-13T09:39:56.216Z,3.30
2023-01-13T09:43:20.218Z,3.40
2023-01-13T09:45:50.950Z,3.00
2023-01-13T09:48:29.598Z,2.75
2023-01-13T09:51:42.823Z,2.78
2023-01-13T09:54:20.096Z,3.25
2023-01-13T09:56:46.549Z,3.30
2023-01-13T09:59:13.083Z,2.85
2023-01-13T10:01:51.712Z,2.97
2023-01-13T10:04:18.298Z,2.75
2023-01-13T10:06:52.570Z,2.75
2023-01-13T10:09:27.286Z,2.60
2023-01-13T10:12:16.026Z,2.95
2023-01-13T10:15:02.760Z,3.38
2023-01-13T10:17:44.732Z,3.28
2023-01-13T10:20:17.239Z,3.42
2023-01-13T10:22:56.082Z,2.60
2023-01-13T10:25:55.065Z,3.40
2023-01-13T10:28:23.906Z,3.20
2023-01-13T10:30:50.970Z,3.58
2023-01-13T10:33:21.414Z,3.40
2023-01-13T10:35:57.519Z,3.05
2023-01-13T10:38:48.215Z,3.00
2023-01-13T10:41:20.371Z,2.70
2023-01-13T10:43:52.905Z,3.67
2023-01-13T10:46:20.649Z,3.25
2023-01-13T10:48:53.178Z,3.50
2023-01-13T10:51:25.627Z,2.85
2023-01-13T10:53:59.498Z,2.70
2023-01-13T10:56:29.796Z,2.97
2023-01-13T10:59:17.136Z,3.13
2023-01-13T11:01:58.176Z,3.55
2023-01-13T11:04:34.890Z,3.75
2023-01-13T11:07:03.895Z,3.33
2023-01-13T11:09:32.208Z,3.65
2023-01-13T11:11:59.451Z,3.85
2023-01-13T11:14:42.813Z,3.60
2023-01-13T11:17:32.568Z,3.90
2023-01-13T11:20:11.131Z,3.22
2023-01-13T11:22:47.947Z,3.13
2023-01-13T11:25:33.258Z,3.33
2023-01-13T11:28:05.425Z,2.90
2023-01-13T11:30:38.668Z,3.05
2023-01-13T11:33:14.135Z,2.88
2023-01-13T11:36:03.166Z,3.83
2023-01-13T11:38:53.013Z,3.08
2023-01-13T11:41:39.100Z,3.33
2023-01-13T11:44:32.784Z,3.42
2023-01-13T11:46:59.242Z,2.83
2023-01-13T11:49:29.157Z,3.88
2023-01-13T11:52:04.058Z,2.78
2023-01-13T11:54:49.032Z,3.45
2023-01-13T11:57:42.444Z,2.72
2023-01-13T12:00:20.546Z,3.00
2023-01-13T12:02:57.877Z,3.35
2023-01-13T12:05:59.569Z,2.70
2023-01-13T12:09:00.125Z,2.58
2023-01-13T12:11:56.480Z,2.90
2023-01-13T12:14:33.085Z,2.70
2023-01-13T12:17:01.836Z,3.13
2023-01-13T12:19:31.217Z,2.88
2023-01-13T12:22:11.659Z,3.30
2023-01-13T12:24:45.748Z,3.33
2023-01-13T12:27:23.466Z,3.17
2023-01-13T12:29:55.211Z,2.60
2023-01-13T12:32:29.263Z,2.70
2023-01-13T12:35:05.177Z,2.88
2023-01-13T12:40:24.005Z,3.25
2023-01-13T12:43:31.328Z,3.13
2023-01-13T12:49:04.603Z,2.83
2023-01-13T12:51:37.566Z,3.00
2023-01-13T12:54:44.877Z,2.58
2023-01-13T12:59:59.851Z,2.25
2023-01-13T13:02:30.708Z,2.45
2023-01-13T13:05:18.573Z,2.30
2023-01-13T13:07:49.476Z,2.40
2023-01-13T13:10:24.513Z,2.47
2023-01-13T13:13:20.292Z,3.27
2023-01-13T13:15:49.090Z,2.78
2023-01-13T13:18:19.472Z,2.65
2023-01-13T13:20:55.148Z,2.47
2023-01-13T13:23:36.817Z,2.92
2023-01-13T13:26:21.554Z,2.30
2023-01-13T13:29:12.330Z,2.60
2023-01-13T13:31:44.672Z,3.10
2023-01-13T13:34:48.679Z,2.17
2023-01-13T13:38:12.973Z,2.92
2023-01-13T13:41:02.764Z,3.00
2023-01-13T13:43:56.292Z,13.88
2023-01-13T13:46:51.760Z,25.02
2023-01-13T13:49:34.230Z,12.50
2023-01-13T13:52:12.131Z,9.25
2023-01-13T13:54:42.531Z,4.35
2023-01-13T13:57:18.480Z,3.05
2023-01-13T14:02:19.888Z,2.47
2023-01-13T14:04:46.405Z,2.60
2023-01-13T14:07:21.323Z,2.42
2023-01-13T14:09:54.434Z,2.80
2023-01-13T14:12:23.908Z,2.53
2023-01-13T14:14:51.341Z,2.63
2023-01-13T14:17:23.923Z,2.30
2023-01-13T14:20:07.813Z,2.55
2023-01-13T14:22:34.606Z,2.40
2023-01-13T14:25:01.921Z,2.17
2023-01-13T14:27:30.372Z,2.20
2023-01-13T14:30:00.197Z,2.38
2023-01-13T14:32:33.541Z,2.28
2023-01-13T14:35:00.107Z,1.98
2023-01-13T14:37:36.601Z,2.30
2023-01-13T14:40:03.848Z,2.30
2023-01-13T14:42:31.543Z,2.22
2023-01-13T14:44:58.522Z,2.20
2023-01-13T14:47:32.138Z,2.50
2023-01-13T14:50:10.671Z,2.50
2023-01-13T14:52:48.959Z,2.58
2023-01-13T14:55:23.437Z,2.63
2023-01-13T14:57:50.382Z,2.15
2023-01-13T15:00:18.713Z,2.30
2023-01-13T15:02:53.479Z,2.40
2023-01-13T15:05:19.944Z,2.70
2023-01-13T15:07:55.184Z,2.28
2023-01-13T15:10:41.921Z,2.53
2023-01-13T15:13:23.899Z,2.30
2023-01-13T15:15:55.684Z,2.60
2023-01-13T15:18:22.289Z,2.90
2023-01-13T15:20:50.896Z,2.28
2023-01-13T15:23:18.825Z,2.38
2023-01-13T15:25:46.538Z,2.20
2023-01-13T15:28:18.166Z,2.25
2023-01-13T15:30:44.790Z,2.85
2023-01-13T15:33:12.591Z,2.92
2023-01-13T15:35:42.926Z,2.92
2023-01-13T15:38:15.059Z,3.08
2023-01-13T15:40:42.735Z,2.92
2023-01-13T15:43:32.635Z,2.83
2023-01-13T15:46:18.403Z,2.92
2023-01-13T15:48:44.878Z,3.30
2023-01-13T15:51:12.394Z,3.25
2023-01-13T15:53:40.738Z,3.63
2023-01-13T15:56:27.783Z,3.13
2023-01-13T15:58:54.641Z,3.15
2023-01-13T16:01:21.964Z,3.03
2023-01-13T16:03:48.516Z,3.17
2023-01-13T16:06:27.879Z,3.35
2023-01-13T16:08:54.213Z,3.17
2023-01-13T16:11:20.541Z,3.28
2023-01-13T16:13:46.872Z,3.30
2023-01-13T16:16:24.905Z,3.60
2023-01-13T16:18:52.531Z,4.18
2023-01-13T16:21:20.610Z,3.75
2023-01-13T16:23:48.387Z,3.60
2023-01-13T16:26:22.422Z,11.95
2023-01-13T16:28:50.561Z,4.82
2023-01-13T16:31:22.872Z,8.20
2023-01-13T16:33:49.276Z,6.28
2023-01-13T16:36:20.354Z,9.23
2023-01-13T16:38:47.889Z,6.43
2023-01-13T16:41:14.683Z,6.25
2023-01-13T16:43:41.280Z,4.43
2023-01-13T16:46:17.587Z,4.93
2023-01-13T16:48:44.207Z,4.55
2023-01-13T16:51:10.582Z,4.00
2023-01-13T16:53:36.910Z,3.42
2023-01-13T16:56:03.311Z,2.90
2023-01-13T16:58:29.657Z,3.20
2023-01-13T17:00:56.106Z,3.55
2023-01-13T17:03:22.558Z,2.88
2023-01-13T17:05:48.925Z,3.42
2023-01-13T17:08:20.012Z,2.70
2023-01-13T17:10:47.641Z,3.00
2023-01-13T17:13:16.973Z,2.38
2023-01-13T17:15:45.080Z,2.90
2023-01-13T17:18:13.127Z,3.10
2023-01-13T17:20:39.582Z,2.53
2023-01-13T17:23:06.088Z,1.95
2023-01-13T17:25:32.427Z,5.65
2023-01-13T17:27:58.948Z,3.25
2023-01-13T17:30:25.375Z,3.30
2023-01-13T17:32:51.717Z,3.38
2023-01-13T17:35:22.862Z,2.95
2023-01-13T17:37:49.291Z,2.83
2023-01-13T17:40:15.947Z,2.70
2023-01-13T17:42:42.356Z,2.97
2023-01-13T17:45:11.359Z,2.83
2023-01-13T17:47:38.419Z,2.67
2023-01-13T17:50:05.675Z,3.63
2023-01-13T17:52:33.474Z,3.67
2023-01-13T17:54:59.906Z,2.85
2023-01-13T17:57:26.373Z,3.00
2023-01-13T17:59:52.832Z,3.22
2023-01-13T18:02:19.254Z,3.30
2023-01-13T18:04:45.797Z,2.88
2023-01-13T18:07:12.242Z,2.70
2023-01-13T18:09:38.655Z,3.25
2023-01-13T18:12:05.732Z,3.60
2023-01-13T18:14:32.249Z,3.58
2023-01-13T18:16:58.610Z,3.33
2023-01-13T18:19:43.529Z,3.20
2023-01-13T18:22:32.307Z,2.60
2023-01-13T18:25:17.245Z,3.45
2023-01-13T18:27:43.743Z,3.42
2023-01-13T18:30:11.887Z,3.33
2023-01-13T18:32:38.280Z,2.90
2023-01-13T18:35:09.670Z,3.10
2023-01-13T18:37:42.159Z,2.88
2023-01-13T18:40:12.479Z,3.22
2023-01-13T18:42:51.538Z,3.30
2023-01-13T18:45:26.841Z,3.20
2023-01-13T18:47:55.050Z,3.33
2023-01-13T18:50:22.986Z,2.78
2023-01-13T18:52:49.534Z,2.80
2023-01-13T18:55:16.152Z,2.72
2023-01-13T18:57:42.614Z,2.55
2023-01-13T19:00:13.282Z,2.90
2023-01-13T19:02:39.968Z,3.20
2023-01-13T19:05:07.022Z,3.03
2023-01-13T19:07:35.554Z,2.67
2023-01-13T19:10:04.278Z,2.80
2023-01-13T19:12:31.199Z,2.53
2023-01-13T19:14:58.531Z,2.70
2023-01-13T19:17:27.196Z,2.35
2023-01-13T19:19:55.542Z,2.78
2023-01-13T19:22:27.152Z,2.63
2023-01-13T19:24:53.631Z,2.40
2023-01-13T19:27:21.328Z,2.60
2023-01-13T19:29:52.256Z,2.47
2023-01-13T19:32:22.881Z,2.63
2023-01-13T19:34:51.293Z,2.50
2023-01-13T19:37:18.617Z,2.83
2023-01-13T19:39:45.039Z,2.30
2023-01-13T19:42:31.158Z,2.10
2023-01-13T19:45:16.479Z,1.92
2023-01-13T19:47:45.249Z,2.15
2023-01-13T19:50:12.669Z,2.40
2023-01-13T19:52:39.211Z,2.10
2023-01-13T19:55:06.070Z,2.20
2023-01-13T19:57:32.510Z,2.50
2023-01-13T19:59:58.932Z,1.98
2023-01-13T20:02:28.464Z,2.05
2023-01-13T20:04:56.720Z,1.73
2023-01-13T20:07:24.995Z,1.90
2023-01-13T20:09:56.242Z,1.65
2023-01-13T20:12:23.792Z,2.05
2023-01-13T20:14:50.292Z,2.13
2023-01-13T20:17:19.341Z,1.70
2023-01-13T20:19:45.771Z,1.45
2023-01-13T20:22:13.139Z,1.25
2023-01-13T20:24:39.659Z,1.50
2023-01-13T20:27:06.811Z,1.35
2023-01-13T20:29:33.505Z,1.13
2023-01-13T20:32:00.269Z,1.45
2023-01-13T20:34:27.109Z,0.95
2023-01-13T20:36:54.387Z,1.23
2023-01-13T20:39:25.224Z,1.08
2023-01-13T20:42:10.493Z,0.93
2023-01-13T20:44:36.935Z,1.08
2023-01-13T20:47:03.550Z,1.10
2023-01-13T20:49:30.398Z,1.75
2023-01-13T20:51:57.485Z,1.40
2023-01-13T20:54:24.640Z,2.55
2023-01-13T20:56:51.237Z,1.42
2023-01-13T20:59:17.664Z,1.67
2023-01-13T21:01:45.477Z,1.60
2023-01-13T21:04:12.363Z,1.90
2023-01-13T21:06:39.019Z,1.60
2023-01-13T21:09:05.379Z,1.35
2023-01-13T21:11:50.320Z,1.90
2023-01-13T21:14:42.861Z,1.60
2023-01-13T21:17:29.372Z,2.05
2023-01-13T21:19:56.429Z,2.30
2023-01-13T21:22:23.362Z,2.10
2023-01-13T21:24:50.215Z,2.00
2023-01-13T21:27:16.651Z,1.90
2023-01-13T21:29:44.523Z,1.92
2023-01-13T21:32:11.384Z,2.05
2023-01-13T21:34:37.824Z,2.17
2023-01-13T21:37:04.227Z,1.60
2023-01-13T21:39:30.661Z,2.17
2023-01-13T21:42:15.796Z,1.70
2023-01-13T21:45:00.817Z,1.70
2023-01-13T21:47:45.488Z,1.73
2023-01-13T21:50:13.529Z,1.83
2023-01-13T21:52:42.593Z,2.10
2023-01-13T21:55:26.955Z,1.63
2023-01-13T21:58:10.444Z,1.83
2023-01-13T22:00:38.052Z,1.70
2023-01-13T22:03:06.291Z,1.88
2023-01-13T22:05:32.746Z,1.48
2023-01-13T22:07:59.358Z,1.40
2023-01-13T22:10:28.029Z,1.40
2023-01-13T22:12:56.171Z,1.17
2023-01-13T22:15:26.831Z,1.33
2023-01-13T22:17:54.621Z,1.60
2023-01-13T22:20:22.297Z,1.55
2023-01-13T22:22:49.067Z,1.50
2023-01-13T22:25:16.600Z,1.42
2023-01-13T22:27:44.541Z,1.13
2023-01-13T22:30:13.846Z,1.50
2023-01-13T22:32:40.370Z,1.10
2023-01-13T22:35:08.958Z,1.52
2023-01-13T22:37:35.953Z,1.35
2023-01-13T22:40:03.932Z,1.38
2023-01-13T22:42:30.427Z,1.55
2023-01-13T22:44:56.822Z,1.40
2023-01-13T22:47:23.399Z,1.52
2023-01-13T22:49:49.777Z,1.50
2023-01-13T22:52:17.097Z,1.65
2023-01-13T22:54:43.697Z,1.70
2023-01-13T22:57:10.400Z,1.50
2023-01-13T22:59:37.002Z,1.52
2023-01-13T23:02:03.544Z,1.58
2023-01-13T23:04:30.037Z,1.45
2023-01-13T23:06:56.483Z,1.40
2023-01-13T23:09:22.940Z,2.00
2023-01-13T23:11:49.394Z,1.83
2023-01-13T23:14:15.810Z,1.85
2023-01-13T23:16:42.377Z,2.50
2023-01-13T23:19:10.464Z,2.08
2023-01-13T23:21:37.651Z,1.95
2023-01-13T23:24:05.539Z,2.28
2023-01-13T23:26:33.085Z,1.92
2023-01-13T23:29:01.975Z,1.65
2023-01-13T23:31:28.629Z,2.08
2023-01-13T23:33:55.048Z,1.90
2023-01-13T23:36:24.194Z,2.33
2023-01-13T23:38:51.835Z,1.92
2023-01-13T23:41:21.303Z,2.15
2023-01-13T23:43:58.778Z,1.95
2023-01-13T23:46:25.427Z,1.83
2023-01-13T23:48:52.149Z,2.28
2023-01-13T23:51:21.198Z,2.08
2023-01-13T23:53:49.974Z,1.83
2023-01-13T23:56:22.046Z,2.03
2023-01-13T23:58:49.709Z,2.20
